sensor_id;sensor_type;location;lat;lon;timestamp;P1;durP1;ratioP1;P2;durP2;ratioP2
10248;SDS011;5169;50.560;9.714;2024-02-04T00:01:06;72.43;;;33.77;;
10248;SDS011;5169;50.560;9.714;2024-02-04T00:03:32;75.40;;;34.47;;
10248;SDS011;5169;50.560;9.714;2024-02-04T00:05:57;71.43;;;33.67;;
10248;SDS011;5169;50.560;9.714;2024-02-04T00:08:23;70.23;;;33.30;;
10248;SDS011;5169;50.560;9.714;2024-02-04T00:10:49;70.77;;;33.73;;
10248;SDS011;5169;50.560;9.714;2024-02-04T00:13:14;70.77;;;34.03;;
10248;SDS011;5169;50.560;9.714;2024-02-04T00:15:40;73.20;;;34.30;;
10248;SDS011;5169;50.560;9.714;2024-02-04T00:18:06;79.03;;;35.93;;
10248;SDS011;5169;50.560;9.714;2024-02-04T00:20:31;75.87;;;34.83;;
10248;SDS011;5169;50.560;9.714;2024-02-04T00:22:57;75.53;;;34.23;;
10248;SDS011;5169;50.560;9.714;2024-02-04T00:25:23;73.03;;;34.03;;
10248;SDS011;5169;50.560;9.714;2024-02-04T00:27:49;76.10;;;34.20;;
10248;SDS011;5169;50.560;9.714;2024-02-04T00:30:15;72.13;;;34.23;;
10248;SDS011;5169;50.560;9.714;2024-02-04T00:32:43;70.83;;;33.30;;
10248;SDS011;5169;50.560;9.714;2024-02-04T00:35:09;67.00;;;32.77;;
10248;SDS011;5169;50.560;9.714;2024-02-04T00:37:39;74.37;;;34.30;;
10248;SDS011;5169;50.560;9.714;2024-02-04T00:40:05;70.30;;;33.60;;
10248;SDS011;5169;50.560;9.714;2024-02-04T00:42:34;66.47;;;32.53;;
10248;SDS011;5169;50.560;9.714;2024-02-04T00:45:02;63.07;;;31.63;;
10248;SDS011;5169;50.560;9.714;2024-02-04T00:47:27;68.33;;;33.33;;
10248;SDS011;5169;50.560;9.714;2024-02-04T00:49:53;70.03;;;33.53;;
10248;SDS011;5169;50.560;9.714;2024-02-04T00:52:19;59.50;;;31.30;;
10248;SDS011;5169;50.560;9.714;2024-02-04T00:54:44;58.93;;;31.00;;
10248;SDS011;5169;50.560;9.714;2024-02-04T00:57:10;64.90;;;32.83;;
10248;SDS011;5169;50.560;9.714;2024-02-04T00:59:36;71.00;;;34.17;;
10248;SDS011;5169;50.560;9.714;2024-02-04T01:02:01;62.53;;;32.13;;
10248;SDS011;5169;50.560;9.714;2024-02-04T01:04:30;65.03;;;33.00;;
10248;SDS011;5169;50.560;9.714;2024-02-04T01:06:58;63.60;;;32.30;;
10248;SDS011;5169;50.560;9.714;2024-02-04T01:09:23;60.53;;;31.77;;
10248;SDS011;5169;50.560;9.714;2024-02-04T01:11:52;68.50;;;33.10;;
10248;SDS011;5169;50.560;9.714;2024-02-04T01:14:19;73.87;;;34.20;;
10248;SDS011;5169;50.560;9.714;2024-02-04T01:16:48;72.97;;;34.40;;
10248;SDS011;5169;50.560;9.714;2024-02-04T01:19:13;76.37;;;34.90;;
10248;SDS011;5169;50.560;9.714;2024-02-04T01:21:39;76.53;;;35.17;;
10248;SDS011;5169;50.560;9.714;2024-02-04T01:24:05;71.57;;;34.00;;
10248;SDS011;5169;50.560;9.714;2024-02-04T01:26:31;73.17;;;34.27;;
10248;SDS011;5169;50.560;9.714;2024-02-04T01:28:56;72.77;;;33.77;;
10248;SDS011;5169;50.560;9.714;2024-02-04T01:31:22;75.23;;;34.30;;
10248;SDS011;5169;50.560;9.714;2024-02-04T01:33:48;76.63;;;34.70;;
10248;SDS011;5169;50.560;9.714;2024-02-04T01:36:13;67.13;;;32.73;;
10248;SDS011;5169;50.560;9.714;2024-02-04T01:38:39;66.70;;;32.97;;
10248;SDS011;5169;50.560;9.714;2024-02-04T01:41:04;71.93;;;34.10;;
10248;SDS011;5169;50.560;9.714;2024-02-04T01:43:35;71.47;;;33.43;;
10248;SDS011;5169;50.560;9.714;2024-02-04T01:46:03;69.73;;;33.07;;
10248;SDS011;5169;50.560;9.714;2024-02-04T01:48:29;75.50;;;34.60;;
10248;SDS011;5169;50.560;9.714;2024-02-04T01:50:54;68.07;;;32.70;;
10248;SDS011;5169;50.560;9.714;2024-02-04T01:53:24;71.70;;;33.40;;
10248;SDS011;5169;50.560;9.714;2024-02-04T01:55:53;63.77;;;31.80;;
10248;SDS011;5169;50.560;9.714;2024-02-04T01:58:20;68.63;;;33.13;;
10248;SDS011;5169;50.560;9.714;2024-02-04T02:00:46;65.43;;;32.63;;
10248;SDS011;5169;50.560;9.714;2024-02-04T02:03:15;67.20;;;32.80;;
10248;SDS011;5169;50.560;9.714;2024-02-04T02:05:44;65.90;;;33.00;;
10248;SDS011;5169;50.560;9.714;2024-02-04T02:08:11;69.83;;;33.70;;
10248;SDS011;5169;50.560;9.714;2024-02-04T02:10:40;64.87;;;32.80;;
10248;SDS011;5169;50.560;9.714;2024-02-04T02:13:16;64.20;;;32.00;;
10248;SDS011;5169;50.560;9.714;2024-02-04T02:15:48;67.90;;;33.00;;
10248;SDS011;5169;50.560;9.714;2024-02-04T02:18:23;69.97;;;33.33;;
10248;SDS011;5169;50.560;9.714;2024-02-04T02:23:53;72.63;;;33.67;;
10248;SDS011;5169;50.560;9.714;2024-02-04T02:26:36;70.97;;;33.50;;
10248;SDS011;5169;50.560;9.714;2024-02-04T02:29:05;74.63;;;34.00;;
10248;SDS011;5169;50.560;9.714;2024-02-04T02:31:34;64.87;;;32.37;;
10248;SDS011;5169;50.560;9.714;2024-02-04T02:34:03;70.27;;;33.70;;
10248;SDS011;5169;50.560;9.714;2024-02-04T02:36:33;69.77;;;32.93;;
10248;SDS011;5169;50.560;9.714;2024-02-04T02:41:36;73.10;;;34.63;;
10248;SDS011;5169;50.560;9.714;2024-02-04T02:44:04;74.63;;;34.17;;
10248;SDS011;5169;50.560;9.714;2024-02-04T02:46:35;78.83;;;35.43;;
10248;SDS011;5169;50.560;9.714;2024-02-04T02:49:01;76.60;;;34.73;;
10248;SDS011;5169;50.560;9.714;2024-02-04T02:51:32;75.03;;;34.93;;
10248;SDS011;5169;50.560;9.714;2024-02-04T02:53:57;72.47;;;33.43;;
10248;SDS011;5169;50.560;9.714;2024-02-04T02:56:23;75.27;;;34.70;;
10248;SDS011;5169;50.560;9.714;2024-02-04T02:58:51;77.23;;;35.40;;
10248;SDS011;5169;50.560;9.714;2024-02-04T03:01:17;75.17;;;34.30;;
10248;SDS011;5169;50.560;9.714;2024-02-04T03:03:43;66.13;;;32.50;;
10248;SDS011;5169;50.560;9.714;2024-02-04T03:06:08;71.20;;;33.67;;
10248;SDS011;5169;50.560;9.714;2024-02-04T03:08:34;65.27;;;32.80;;
10248;SDS011;5169;50.560;9.714;2024-02-04T03:11:02;72.40;;;33.97;;
10248;SDS011;5169;50.560;9.714;2024-02-04T03:13:28;68.07;;;33.17;;
10248;SDS011;5169;50.560;9.714;2024-02-04T03:15:55;72.17;;;34.53;;
10248;SDS011;5169;50.560;9.714;2024-02-04T03:18:21;69.57;;;33.20;;
10248;SDS011;5169;50.560;9.714;2024-02-04T03:20:46;77.10;;;35.50;;
10248;SDS011;5169;50.560;9.714;2024-02-04T03:23:17;72.67;;;34.57;;
10248;SDS011;5169;50.560;9.714;2024-02-04T03:25:42;78.00;;;35.40;;
10248;SDS011;5169;50.560;9.714;2024-02-04T03:28:08;77.37;;;35.23;;
10248;SDS011;5169;50.560;9.714;2024-02-04T03:30:34;82.33;;;36.10;;
10248;SDS011;5169;50.560;9.714;2024-02-04T03:32:59;80.63;;;35.93;;
10248;SDS011;5169;50.560;9.714;2024-02-04T03:35:27;84.40;;;36.37;;
10248;SDS011;5169;50.560;9.714;2024-02-04T03:37:53;78.67;;;35.07;;
10248;SDS011;5169;50.560;9.714;2024-02-04T03:40:20;80.83;;;35.13;;
10248;SDS011;5169;50.560;9.714;2024-02-04T03:42:49;76.20;;;34.20;;
10248;SDS011;5169;50.560;9.714;2024-02-04T03:45:15;77.33;;;35.17;;
10248;SDS011;5169;50.560;9.714;2024-02-04T03:47:40;84.40;;;35.87;;
10248;SDS011;5169;50.560;9.714;2024-02-04T03:50:06;76.60;;;34.40;;
10248;SDS011;5169;50.560;9.714;2024-02-04T03:52:32;76.00;;;34.77;;
10248;SDS011;5169;50.560;9.714;2024-02-04T03:54:58;72.57;;;34.33;;
10248;SDS011;5169;50.560;9.714;2024-02-04T03:57:24;73.53;;;34.40;;
10248;SDS011;5169;50.560;9.714;2024-02-04T03:59:50;74.80;;;34.60;;
10248;SDS011;5169;50.560;9.714;2024-02-04T04:02:15;76.40;;;35.30;;
10248;SDS011;5169;50.560;9.714;2024-02-04T04:04:41;77.23;;;35.27;;
10248;SDS011;5169;50.560;9.714;2024-02-04T04:07:08;77.40;;;35.77;;
10248;SDS011;5169;50.560;9.714;2024-02-04T04:09:33;72.30;;;34.27;;
10248;SDS011;5169;50.560;9.714;2024-02-04T04:12:01;72.20;;;33.93;;
10248;SDS011;5169;50.560;9.714;2024-02-04T04:14:27;76.23;;;34.67;;
10248;SDS011;5169;50.560;9.714;2024-02-04T04:16:53;73.23;;;33.70;;
10248;SDS011;5169;50.560;9.714;2024-02-04T04:19:19;74.23;;;34.17;;
10248;SDS011;5169;50.560;9.714;2024-02-04T04:21:44;74.93;;;34.10;;
10248;SDS011;5169;50.560;9.714;2024-02-04T04:24:10;72.97;;;34.00;;
10248;SDS011;5169;50.560;9.714;2024-02-04T04:26:36;67.00;;;32.60;;
10248;SDS011;5169;50.560;9.714;2024-02-04T04:29:01;66.53;;;32.50;;
10248;SDS011;5169;50.560;9.714;2024-02-04T04:31:27;68.87;;;33.00;;
10248;SDS011;5169;50.560;9.714;2024-02-04T04:33:54;67.47;;;32.53;;
10248;SDS011;5169;50.560;9.714;2024-02-04T04:36:19;63.87;;;31.77;;
10248;SDS011;5169;50.560;9.714;2024-02-04T04:38:45;65.93;;;32.50;;
10248;SDS011;5169;50.560;9.714;2024-02-04T04:41:14;65.57;;;32.40;;
10248;SDS011;5169;50.560;9.714;2024-02-04T04:43:45;66.17;;;32.17;;
10248;SDS011;5169;50.560;9.714;2024-02-04T04:46:13;67.33;;;32.30;;
10248;SDS011;5169;50.560;9.714;2024-02-04T04:48:38;70.83;;;34.33;;
10248;SDS011;5169;50.560;9.714;2024-02-04T04:51:07;66.30;;;32.63;;
10248;SDS011;5169;50.560;9.714;2024-02-04T04:53:33;70.40;;;33.37;;
10248;SDS011;5169;50.560;9.714;2024-02-04T04:55:58;71.80;;;33.43;;
10248;SDS011;5169;50.560;9.714;2024-02-04T04:58:24;74.90;;;34.10;;
10248;SDS011;5169;50.560;9.714;2024-02-04T05:00:50;74.10;;;33.80;;
10248;SDS011;5169;50.560;9.714;2024-02-04T05:03:15;66.07;;;32.20;;
10248;SDS011;5169;50.560;9.714;2024-02-04T05:05:41;75.17;;;34.30;;
10248;SDS011;5169;50.560;9.714;2024-02-04T05:08:09;74.33;;;34.33;;
10248;SDS011;5169;50.560;9.714;2024-02-04T05:10:35;76.63;;;35.00;;
10248;SDS011;5169;50.560;9.714;2024-02-04T05:13:05;79.23;;;34.90;;
10248;SDS011;5169;50.560;9.714;2024-02-04T05:15:30;83.90;;;35.87;;
10248;SDS011;5169;50.560;9.714;2024-02-04T05:17:56;81.73;;;35.70;;
10248;SDS011;5169;50.560;9.714;2024-02-04T05:20:22;77.33;;;34.60;;
10248;SDS011;5169;50.560;9.714;2024-02-04T05:22:50;86.50;;;36.40;;
10248;SDS011;5169;50.560;9.714;2024-02-04T05:25:15;84.77;;;36.03;;
10248;SDS011;5169;50.560;9.714;2024-02-04T05:27:41;66.90;;;32.73;;
10248;SDS011;5169;50.560;9.714;2024-02-04T05:30:07;81.07;;;35.30;;
10248;SDS011;5169;50.560;9.714;2024-02-04T05:32:33;82.97;;;36.20;;
10248;SDS011;5169;50.560;9.714;2024-02-04T05:34:58;75.07;;;34.27;;
10248;SDS011;5169;50.560;9.714;2024-02-04T05:37:24;60.87;;;31.13;;
10248;SDS011;5169;50.560;9.714;2024-02-04T05:39:52;76.23;;;34.17;;
10248;SDS011;5169;50.560;9.714;2024-02-04T05:42:18;79.90;;;34.77;;
10248;SDS011;5169;50.560;9.714;2024-02-04T05:44:43;87.50;;;36.50;;
10248;SDS011;5169;50.560;9.714;2024-02-04T05:47:11;80.40;;;34.80;;
10248;SDS011;5169;50.560;9.714;2024-02-04T05:49:37;77.47;;;33.90;;
10248;SDS011;5169;50.560;9.714;2024-02-04T05:52:02;83.93;;;35.80;;
10248;SDS011;5169;50.560;9.714;2024-02-04T05:54:28;79.20;;;34.20;;
10248;SDS011;5169;50.560;9.714;2024-02-04T05:56:54;85.17;;;35.70;;
10248;SDS011;5169;50.560;9.714;2024-02-04T05:59:19;80.20;;;34.40;;
10248;SDS011;5169;50.560;9.714;2024-02-04T06:01:45;78.83;;;34.40;;
10248;SDS011;5169;50.560;9.714;2024-02-04T06:04:13;81.93;;;35.30;;
10248;SDS011;5169;50.560;9.714;2024-02-04T06:06:39;81.50;;;35.60;;
10248;SDS011;5169;50.560;9.714;2024-02-04T06:09:04;84.63;;;35.87;;
10248;SDS011;5169;50.560;9.714;2024-02-04T06:11:30;84.60;;;35.83;;
10248;SDS011;5169;50.560;9.714;2024-02-04T06:13:55;86.73;;;36.47;;
10248;SDS011;5169;50.560;9.714;2024-02-04T06:16:26;83.73;;;35.20;;
10248;SDS011;5169;50.560;9.714;2024-02-04T06:18:52;82.50;;;35.30;;
10248;SDS011;5169;50.560;9.714;2024-02-04T06:21:23;88.17;;;36.60;;
10248;SDS011;5169;50.560;9.714;2024-02-04T06:23:49;83.07;;;35.40;;
10248;SDS011;5169;50.560;9.714;2024-02-04T06:26:14;82.87;;;35.60;;
10248;SDS011;5169;50.560;9.714;2024-02-04T06:28:40;83.87;;;35.90;;
10248;SDS011;5169;50.560;9.714;2024-02-04T06:31:11;84.33;;;35.87;;
10248;SDS011;5169;50.560;9.714;2024-02-04T06:33:37;88.60;;;37.10;;
10248;SDS011;5169;50.560;9.714;2024-02-04T06:36:02;82.67;;;35.77;;
10248;SDS011;5169;50.560;9.714;2024-02-04T06:38:33;79.20;;;34.63;;
10248;SDS011;5169;50.560;9.714;2024-02-04T06:40:58;77.87;;;34.27;;
10248;SDS011;5169;50.560;9.714;2024-02-04T06:43:24;82.53;;;35.00;;
10248;SDS011;5169;50.560;9.714;2024-02-04T06:45:50;83.17;;;35.00;;
10248;SDS011;5169;50.560;9.714;2024-02-04T06:48:18;86.57;;;36.30;;
10248;SDS011;5169;50.560;9.714;2024-02-04T06:50:47;85.90;;;36.07;;
10248;SDS011;5169;50.560;9.714;2024-02-04T06:53:17;82.63;;;35.13;;
10248;SDS011;5169;50.560;9.714;2024-02-04T06:55:43;85.43;;;35.40;;
10248;SDS011;5169;50.560;9.714;2024-02-04T06:58:08;81.00;;;35.03;;
10248;SDS011;5169;50.560;9.714;2024-02-04T07:00:34;87.10;;;35.80;;
10248;SDS011;5169;50.560;9.714;2024-02-04T07:03:00;84.57;;;35.20;;
10248;SDS011;5169;50.560;9.714;2024-02-04T07:05:25;81.83;;;34.73;;
10248;SDS011;5169;50.560;9.714;2024-02-04T07:07:51;79.57;;;34.37;;
10248;SDS011;5169;50.560;9.714;2024-02-04T07:10:17;85.33;;;35.70;;
10248;SDS011;5169;50.560;9.714;2024-02-04T07:12:46;87.10;;;36.10;;
10248;SDS011;5169;50.560;9.714;2024-02-04T07:15:11;85.27;;;35.80;;
10248;SDS011;5169;50.560;9.714;2024-02-04T07:17:37;87.87;;;36.40;;
10248;SDS011;5169;50.560;9.714;2024-02-04T07:20:03;85.53;;;35.90;;
10248;SDS011;5169;50.560;9.714;2024-02-04T07:22:32;87.83;;;36.23;;
10248;SDS011;5169;50.560;9.714;2024-02-04T07:24:59;79.73;;;34.63;;
10248;SDS011;5169;50.560;9.714;2024-02-04T07:27:25;85.37;;;35.93;;
10248;SDS011;5169;50.560;9.714;2024-02-04T07:29:54;89.77;;;36.50;;
10248;SDS011;5169;50.560;9.714;2024-02-04T07:32:23;80.80;;;35.00;;
10248;SDS011;5169;50.560;9.714;2024-02-04T07:34:49;79.60;;;34.50;;
10248;SDS011;5169;50.560;9.714;2024-02-04T07:37:17;85.57;;;35.87;;
10248;SDS011;5169;50.560;9.714;2024-02-04T07:39:45;83.30;;;35.50;;
10248;SDS011;5169;50.560;9.714;2024-02-04T07:42:15;81.97;;;35.10;;
10248;SDS011;5169;50.560;9.714;2024-02-04T07:44:40;84.87;;;36.00;;
10248;SDS011;5169;50.560;9.714;2024-02-04T07:47:08;90.77;;;36.80;;
10248;SDS011;5169;50.560;9.714;2024-02-04T07:49:36;79.03;;;34.83;;
10248;SDS011;5169;50.560;9.714;2024-02-04T07:52:02;82.63;;;35.40;;
10248;SDS011;5169;50.560;9.714;2024-02-04T07:54:30;82.40;;;34.77;;
10248;SDS011;5169;50.560;9.714;2024-02-04T07:57:01;84.80;;;35.70;;
10248;SDS011;5169;50.560;9.714;2024-02-04T07:59:26;117.90;;;40.00;;
10248;SDS011;5169;50.560;9.714;2024-02-04T08:01:52;110.40;;;39.37;;
10248;SDS011;5169;50.560;9.714;2024-02-04T08:04:17;111.83;;;39.97;;
10248;SDS011;5169;50.560;9.714;2024-02-04T08:06:46;111.87;;;39.97;;
10248;SDS011;5169;50.560;9.714;2024-02-04T08:09:11;114.73;;;40.13;;
10248;SDS011;5169;50.560;9.714;2024-02-04T08:11:37;109.30;;;39.40;;
10248;SDS011;5169;50.560;9.714;2024-02-04T08:14:03;116.93;;;40.63;;
10248;SDS011;5169;50.560;9.714;2024-02-04T08:16:29;118.63;;;40.70;;
10248;SDS011;5169;50.560;9.714;2024-02-04T08:18:57;118.33;;;40.67;;
10248;SDS011;5169;50.560;9.714;2024-02-04T08:21:27;117.10;;;40.37;;
10248;SDS011;5169;50.560;9.714;2024-02-04T08:23:56;117.03;;;40.30;;
10248;SDS011;5169;50.560;9.714;2024-02-04T08:26:24;116.43;;;41.23;;
10248;SDS011;5169;50.560;9.714;2024-02-04T08:28:50;115.60;;;40.80;;
10248;SDS011;5169;50.560;9.714;2024-02-04T08:31:16;111.80;;;40.80;;
10248;SDS011;5169;50.560;9.714;2024-02-04T08:33:46;117.17;;;40.90;;
10248;SDS011;5169;50.560;9.714;2024-02-04T08:36:14;123.37;;;41.50;;
10248;SDS011;5169;50.560;9.714;2024-02-04T08:38:40;117.40;;;40.57;;
10248;SDS011;5169;50.560;9.714;2024-02-04T08:41:08;126.17;;;41.90;;
10248;SDS011;5169;50.560;9.714;2024-02-04T08:43:36;123.73;;;41.37;;
10248;SDS011;5169;50.560;9.714;2024-02-04T08:46:02;130.97;;;42.77;;
10248;SDS011;5169;50.560;9.714;2024-02-04T08:48:28;132.00;;;42.50;;
10248;SDS011;5169;50.560;9.714;2024-02-04T08:50:54;138.63;;;43.40;;
10248;SDS011;5169;50.560;9.714;2024-02-04T08:53:20;143.30;;;44.27;;
10248;SDS011;5169;50.560;9.714;2024-02-04T08:55:49;143.67;;;44.30;;
10248;SDS011;5169;50.560;9.714;2024-02-04T08:58:14;144.10;;;44.23;;
10248;SDS011;5169;50.560;9.714;2024-02-04T09:00:42;135.00;;;43.37;;
10248;SDS011;5169;50.560;9.714;2024-02-04T09:03:08;149.23;;;45.33;;
10248;SDS011;5169;50.560;9.714;2024-02-04T09:05:36;159.63;;;46.87;;
10248;SDS011;5169;50.560;9.714;2024-02-04T09:08:02;158.03;;;46.57;;
10248;SDS011;5169;50.560;9.714;2024-02-04T09:10:30;156.53;;;46.87;;
10248;SDS011;5169;50.560;9.714;2024-02-04T09:12:56;154.07;;;45.77;;
10248;SDS011;5169;50.560;9.714;2024-02-04T09:15:23;163.30;;;47.27;;
10248;SDS011;5169;50.560;9.714;2024-02-04T09:17:49;158.50;;;46.97;;
10248;SDS011;5169;50.560;9.714;2024-02-04T09:20:15;155.07;;;46.87;;
10248;SDS011;5169;50.560;9.714;2024-02-04T09:22:40;156.20;;;47.07;;
10248;SDS011;5169;50.560;9.714;2024-02-04T09:25:06;155.20;;;46.40;;
10248;SDS011;5169;50.560;9.714;2024-02-04T09:27:32;156.07;;;46.40;;
10248;SDS011;5169;50.560;9.714;2024-02-04T09:29:58;146.20;;;44.87;;
10248;SDS011;5169;50.560;9.714;2024-02-04T09:32:23;135.80;;;43.37;;
10248;SDS011;5169;50.560;9.714;2024-02-04T09:34:49;135.90;;;43.97;;
10248;SDS011;5169;50.560;9.714;2024-02-04T09:37:17;140.10;;;44.00;;
10248;SDS011;5169;50.560;9.714;2024-02-04T09:39:42;145.77;;;45.63;;
10248;SDS011;5169;50.560;9.714;2024-02-04T09:42:08;146.50;;;45.07;;
10248;SDS011;5169;50.560;9.714;2024-02-04T09:44:41;121.93;;;41.63;;
10248;SDS011;5169;50.560;9.714;2024-02-04T09:47:06;141.57;;;44.30;;
10248;SDS011;5169;50.560;9.714;2024-02-04T09:49:38;157.20;;;46.10;;
10248;SDS011;5169;50.560;9.714;2024-02-04T09:52:06;158.70;;;46.10;;
10248;SDS011;5169;50.560;9.714;2024-02-04T09:54:55;170.30;;;47.67;;
10248;SDS011;5169;50.560;9.714;2024-02-04T09:57:22;172.13;;;47.30;;
10248;SDS011;5169;50.560;9.714;2024-02-04T09:59:49;172.73;;;47.27;;
10248;SDS011;5169;50.560;9.714;2024-02-04T10:02:15;178.00;;;47.97;;
10248;SDS011;5169;50.560;9.714;2024-02-04T10:04:42;163.60;;;46.43;;
10248;SDS011;5169;50.560;9.714;2024-02-04T10:07:08;168.37;;;47.00;;
10248;SDS011;5169;50.560;9.714;2024-02-04T10:09:34;169.60;;;47.00;;
10248;SDS011;5169;50.560;9.714;2024-02-04T10:12:00;168.23;;;46.97;;
10248;SDS011;5169;50.560;9.714;2024-02-04T10:14:25;187.13;;;48.90;;
10248;SDS011;5169;50.560;9.714;2024-02-04T10:16:53;188.60;;;49.23;;
10248;SDS011;5169;50.560;9.714;2024-02-04T10:19:19;183.30;;;48.90;;
10248;SDS011;5169;50.560;9.714;2024-02-04T10:21:44;174.13;;;47.77;;
10248;SDS011;5169;50.560;9.714;2024-02-04T10:24:10;175.33;;;47.90;;
10248;SDS011;5169;50.560;9.714;2024-02-04T10:26:36;171.13;;;47.67;;
10248;SDS011;5169;50.560;9.714;2024-02-04T10:29:03;166.00;;;47.00;;
10248;SDS011;5169;50.560;9.714;2024-02-04T10:31:29;167.17;;;47.03;;
10248;SDS011;5169;50.560;9.714;2024-02-04T10:33:55;169.60;;;47.30;;
10248;SDS011;5169;50.560;9.714;2024-02-04T10:36:23;168.93;;;47.47;;
10248;SDS011;5169;50.560;9.714;2024-02-04T10:38:49;173.27;;;48.07;;
10248;SDS011;5169;50.560;9.714;2024-02-04T10:41:15;186.43;;;49.40;;
10248;SDS011;5169;50.560;9.714;2024-02-04T10:43:42;181.47;;;48.50;;
10248;SDS011;5169;50.560;9.714;2024-02-04T10:46:09;185.17;;;48.97;;
10248;SDS011;5169;50.560;9.714;2024-02-04T10:48:41;182.27;;;48.60;;
10248;SDS011;5169;50.560;9.714;2024-02-04T10:51:13;184.80;;;48.80;;
10248;SDS011;5169;50.560;9.714;2024-02-04T10:53:45;180.43;;;48.30;;
10248;SDS011;5169;50.560;9.714;2024-02-04T10:56:18;180.27;;;48.57;;
10248;SDS011;5169;50.560;9.714;2024-02-04T10:58:48;158.67;;;46.07;;
10248;SDS011;5169;50.560;9.714;2024-02-04T11:01:14;165.63;;;47.53;;
10248;SDS011;5169;50.560;9.714;2024-02-04T11:03:40;157.00;;;46.43;;
10248;SDS011;5169;50.560;9.714;2024-02-04T11:06:09;163.87;;;46.87;;
10248;SDS011;5169;50.560;9.714;2024-02-04T11:08:37;162.07;;;46.67;;
10248;SDS011;5169;50.560;9.714;2024-02-04T11:11:08;167.13;;;47.10;;
10248;SDS011;5169;50.560;9.714;2024-02-04T11:13:34;175.17;;;48.77;;
10248;SDS011;5169;50.560;9.714;2024-02-04T11:16:06;165.10;;;47.00;;
10248;SDS011;5169;50.560;9.714;2024-02-04T11:18:57;181.33;;;49.00;;
10248;SDS011;5169;50.560;9.714;2024-02-04T11:21:46;165.17;;;46.73;;
10248;SDS011;5169;50.560;9.714;2024-02-04T11:27:30;169.93;;;47.27;;
10248;SDS011;5169;50.560;9.714;2024-02-04T11:29:56;171.93;;;47.83;;
10248;SDS011;5169;50.560;9.714;2024-02-04T11:32:23;174.53;;;48.17;;
10248;SDS011;5169;50.560;9.714;2024-02-04T11:34:50;179.43;;;48.77;;
10248;SDS011;5169;50.560;9.714;2024-02-04T11:37:17;171.13;;;48.30;;
10248;SDS011;5169;50.560;9.714;2024-02-04T11:39:50;179.77;;;48.73;;
10248;SDS011;5169;50.560;9.714;2024-02-04T11:42:22;169.83;;;47.50;;
10248;SDS011;5169;50.560;9.714;2024-02-04T11:45:05;183.40;;;49.10;;
10248;SDS011;5169;50.560;9.714;2024-02-04T11:47:36;183.00;;;49.53;;
10248;SDS011;5169;50.560;9.714;2024-02-04T11:50:03;177.80;;;49.10;;
10248;SDS011;5169;50.560;9.714;2024-02-04T11:52:34;182.97;;;49.60;;
10248;SDS011;5169;50.560;9.714;2024-02-04T11:55:02;208.10;;;53.10;;
10248;SDS011;5169;50.560;9.714;2024-02-04T11:57:31;203.60;;;52.70;;
10248;SDS011;5169;50.560;9.714;2024-02-04T11:59:58;195.23;;;51.27;;
10248;SDS011;5169;50.560;9.714;2024-02-04T12:02:25;188.97;;;50.50;;
10248;SDS011;5169;50.560;9.714;2024-02-04T12:04:51;203.10;;;52.23;;
10248;SDS011;5169;50.560;9.714;2024-02-04T12:07:20;191.47;;;51.27;;
10248;SDS011;5169;50.560;9.714;2024-02-04T12:09:46;184.07;;;50.57;;
10248;SDS011;5169;50.560;9.714;2024-02-04T12:12:15;182.10;;;49.93;;
10248;SDS011;5169;50.560;9.714;2024-02-04T12:14:44;177.80;;;49.40;;
10248;SDS011;5169;50.560;9.714;2024-02-04T12:17:15;193.80;;;51.47;;
10248;SDS011;5169;50.560;9.714;2024-02-04T12:19:41;196.43;;;52.50;;
10248;SDS011;5169;50.560;9.714;2024-02-04T12:22:06;180.73;;;49.97;;
10248;SDS011;5169;50.560;9.714;2024-02-04T12:24:35;173.53;;;49.60;;
10248;SDS011;5169;50.560;9.714;2024-02-04T12:27:02;185.70;;;51.87;;
10248;SDS011;5169;50.560;9.714;2024-02-04T12:29:29;187.37;;;51.80;;
10248;SDS011;5169;50.560;9.714;2024-02-04T12:32:02;196.43;;;51.97;;
10248;SDS011;5169;50.560;9.714;2024-02-04T12:34:28;193.20;;;51.87;;
10248;SDS011;5169;50.560;9.714;2024-02-04T12:37:03;192.27;;;51.30;;
10248;SDS011;5169;50.560;9.714;2024-02-04T12:39:29;191.60;;;51.40;;
10248;SDS011;5169;50.560;9.714;2024-02-04T12:41:57;186.97;;;50.50;;
10248;SDS011;5169;50.560;9.714;2024-02-04T12:44:28;170.03;;;49.00;;
10248;SDS011;5169;50.560;9.714;2024-02-04T12:46:59;180.90;;;49.80;;
10248;SDS011;5169;50.560;9.714;2024-02-04T12:49:27;187.77;;;50.93;;
10248;SDS011;5169;50.560;9.714;2024-02-04T12:52:03;203.87;;;52.60;;
10248;SDS011;5169;50.560;9.714;2024-02-04T12:54:42;206.80;;;55.50;;
10248;SDS011;5169;50.560;9.714;2024-02-04T12:57:09;211.90;;;56.07;;
10248;SDS011;5169;50.560;9.714;2024-02-04T12:59:36;172.00;;;50.90;;
10248;SDS011;5169;50.560;9.714;2024-02-04T13:02:03;187.67;;;51.97;;
10248;SDS011;5169;50.560;9.714;2024-02-04T13:04:42;181.67;;;50.90;;
10248;SDS011;5169;50.560;9.714;2024-02-04T13:07:08;177.30;;;50.47;;
10248;SDS011;5169;50.560;9.714;2024-02-04T13:09:36;172.43;;;50.33;;
10248;SDS011;5169;50.560;9.714;2024-02-04T13:12:05;178.57;;;51.00;;
10248;SDS011;5169;50.560;9.714;2024-02-04T13:14:38;172.43;;;50.70;;
10248;SDS011;5169;50.560;9.714;2024-02-04T13:17:04;166.07;;;49.17;;
10248;SDS011;5169;50.560;9.714;2024-02-04T13:19:37;167.53;;;49.17;;
10248;SDS011;5169;50.560;9.714;2024-02-04T13:22:06;172.83;;;49.63;;
10248;SDS011;5169;50.560;9.714;2024-02-04T13:24:35;162.20;;;48.67;;
10248;SDS011;5169;50.560;9.714;2024-02-04T13:27:01;155.07;;;47.60;;
10248;SDS011;5169;50.560;9.714;2024-02-04T13:29:28;174.40;;;49.53;;
10248;SDS011;5169;50.560;9.714;2024-02-04T13:31:54;165.23;;;47.97;;
10248;SDS011;5169;50.560;9.714;2024-02-04T13:34:20;163.30;;;47.97;;
10248;SDS011;5169;50.560;9.714;2024-02-04T13:36:48;165.13;;;47.97;;
10248;SDS011;5169;50.560;9.714;2024-02-04T13:39:15;167.57;;;48.63;;
10248;SDS011;5169;50.560;9.714;2024-02-04T13:41:45;192.23;;;51.20;;
10248;SDS011;5169;50.560;9.714;2024-02-04T13:44:11;200.93;;;52.53;;
10248;SDS011;5169;50.560;9.714;2024-02-04T13:46:36;194.07;;;51.87;;
10248;SDS011;5169;50.560;9.714;2024-02-04T13:49:04;181.23;;;50.10;;
10248;SDS011;5169;50.560;9.714;2024-02-04T13:51:31;189.77;;;51.57;;
10248;SDS011;5169;50.560;9.714;2024-02-04T13:53:56;151.90;;;47.33;;
10248;SDS011;5169;50.560;9.714;2024-02-04T13:56:22;149.13;;;46.93;;
10248;SDS011;5169;50.560;9.714;2024-02-04T13:58:54;142.80;;;46.70;;
10248;SDS011;5169;50.560;9.714;2024-02-04T14:01:22;152.97;;;46.93;;
10248;SDS011;5169;50.560;9.714;2024-02-04T14:03:48;154.73;;;47.17;;
10248;SDS011;5169;50.560;9.714;2024-02-04T14:06:15;159.33;;;47.93;;
10248;SDS011;5169;50.560;9.714;2024-02-04T14:08:40;145.07;;;46.03;;
10248;SDS011;5169;50.560;9.714;2024-02-04T14:11:06;131.93;;;44.60;;
10248;SDS011;5169;50.560;9.714;2024-02-04T14:13:32;153.53;;;47.13;;
10248;SDS011;5169;50.560;9.714;2024-02-04T14:15:58;152.33;;;46.63;;
10248;SDS011;5169;50.560;9.714;2024-02-04T14:18:24;162.83;;;47.67;;
10248;SDS011;5169;50.560;9.714;2024-02-04T14:20:52;146.50;;;46.30;;
10248;SDS011;5169;50.560;9.714;2024-02-04T14:23:18;158.67;;;47.23;;
10248;SDS011;5169;50.560;9.714;2024-02-04T14:25:43;159.23;;;48.57;;
10248;SDS011;5169;50.560;9.714;2024-02-04T14:28:10;158.43;;;48.17;;
10248;SDS011;5169;50.560;9.714;2024-02-04T14:30:36;159.33;;;48.23;;
10248;SDS011;5169;50.560;9.714;2024-02-04T14:33:02;153.17;;;47.80;;
10248;SDS011;5169;50.560;9.714;2024-02-04T14:35:28;159.00;;;47.90;;
10248;SDS011;5169;50.560;9.714;2024-02-04T14:37:56;160.77;;;47.90;;